sensor_id;sensor_type;location;lat;lon;timestamp;pressure;altitude;pressure_sealevel;temperature;humidity
10978;BME280;5542;48.272;10.794;2023-02-28T00:00:26;96156.09;;;-2.46;67.20
10978;BME280;5542;48.272;10.794;2023-02-28T00:02:53;96146.19;;;-2.51;67.31
10978;BME280;5542;48.272;10.794;2023-02-28T00:05:23;96145.78;;;-2.56;67.71
10978;BME280;5542;48.272;10.794;2023-02-28T00:07:51;96142.09;;;-2.44;67.99
10978;BME280;5542;48.272;10.794;2023-02-28T00:10:19;96134.66;;;-2.37;66.73
10978;BME280;5542;48.272;10.794;2023-02-28T00:12:48;96139.38;;;-2.42;66.57
10978;BME280;5542;48.272;10.794;2023-02-28T00:15:15;96134.78;;;-2.39;65.87
10978;BME280;5542;48.272;10.794;2023-02-28T00:17:41;96139.66;;;-2.36;65.95
10978;BME280;5542;48.272;10.794;2023-02-28T00:20:10;96137.88;;;-2.25;65.88
10978;BME280;5542;48.272;10.794;2023-02-28T00:22:37;96133.81;;;-2.38;66.24
10978;BME280;5542;48.272;10.794;2023-02-28T00:25:07;96135.72;;;-2.40;66.33
10978;BME280;5542;48.272;10.794;2023-02-28T00:27:35;96133.97;;;-2.39;66.11
10978;BME280;5542;48.272;10.794;2023-02-28T00:30:03;96140.47;;;-2.35;66.18
10978;BME280;5542;48.272;10.794;2023-02-28T00:32:30;96137.72;;;-2.24;65.76
10978;BME280;5542;48.272;10.794;2023-02-28T00:34:57;96128.91;;;-2.21;65.92
10978;BME280;5542;48.272;10.794;2023-02-28T00:37:23;96133.00;;;-2.38;67.29
10978;BME280;5542;48.272;10.794;2023-02-28T00:39:50;96138.44;;;-2.32;66.72
10978;BME280;5542;48.272;10.794;2023-02-28T00:42:18;96136.13;;;-2.44;66.64
10978;BME280;5542;48.272;10.794;2023-02-28T00:44:44;96130.34;;;-2.56;67.51
10978;BME280;5542;48.272;10.794;2023-02-28T00:47:11;96135.75;;;-2.49;67.36
10978;BME280;5542;48.272;10.794;2023-02-28T00:49:37;96126.94;;;-2.47;67.99
10978;BME280;5542;48.272;10.794;2023-02-28T00:52:04;96133.00;;;-2.38;67.25
10978;BME280;5542;48.272;10.794;2023-02-28T00:54:30;96131.53;;;-2.41;67.71
10978;BME280;5542;48.272;10.794;2023-02-28T00:56:58;96123.81;;;-2.41;67.47
10978;BME280;5542;48.272;10.794;2023-02-28T00:59:26;96133.53;;;-2.35;67.67
10978;BME280;5542;48.272;10.794;2023-02-28T01:01:52;96131.78;;;-2.44;67.67
10978;BME280;5542;48.272;10.794;2023-02-28T01:04:19;96131.50;;;-2.31;67.03
10978;BME280;5542;48.272;10.794;2023-02-28T01:06:45;96125.69;;;-2.43;67.08
10978;BME280;5542;48.272;10.794;2023-02-28T01:09:12;96130.72;;;-2.41;67.30
10978;BME280;5542;48.272;10.794;2023-02-28T01:11:38;96129.50;;;-2.57;67.68
10978;BME280;5542;48.272;10.794;2023-02-28T01:14:07;96126.81;;;-2.55;68.14
10978;BME280;5542;48.272;10.794;2023-02-28T01:16:36;96128.97;;;-2.50;67.28
10978;BME280;5542;48.272;10.794;2023-02-28T01:19:02;96129.66;;;-2.58;67.79
10978;BME280;5542;48.272;10.794;2023-02-28T01:21:29;96135.59;;;-2.58;68.02
10978;BME280;5542;48.272;10.794;2023-02-28T01:23:57;96128.16;;;-2.51;68.24
10978;BME280;5542;48.272;10.794;2023-02-28T01:26:24;96135.09;;;-2.61;67.86
10978;BME280;5542;48.272;10.794;2023-02-28T01:28:52;96132.38;;;-2.60;67.71
10978;BME280;5542;48.272;10.794;2023-02-28T01:31:20;96122.59;;;-2.56;67.49
10978;BME280;5542;48.272;10.794;2023-02-28T01:33:48;96121.78;;;-2.66;67.84
10978;BME280;5542;48.272;10.794;2023-02-28T01:36:17;96111.63;;;-2.68;67.38
10978;BME280;5542;48.272;10.794;2023-02-28T01:38:44;96112.59;;;-2.69;67.86
10978;BME280;5542;48.272;10.794;2023-02-28T01:41:16;96121.53;;;-2.83;68.24
10978;BME280;5542;48.272;10.794;2023-02-28T01:44:05;96115.44;;;-2.81;68.08
10978;BME280;5542;48.272;10.794;2023-02-28T01:46:32;96114.06;;;-2.86;68.57
10978;BME280;5542;48.272;10.794;2023-02-28T01:49:05;96110.41;;;-2.73;68.71
10978;BME280;5542;48.272;10.794;2023-02-28T01:51:39;96108.50;;;-2.71;68.14
10978;BME280;5542;48.272;10.794;2023-02-28T01:54:14;96111.38;;;-2.84;68.89
10978;BME280;5542;48.272;10.794;2023-02-28T01:56:45;96108.66;;;-2.83;68.54
10978;BME280;5542;48.272;10.794;2023-02-28T01:59:19;96098.34;;;-2.73;68.45
10978;BME280;5542;48.272;10.794;2023-02-28T02:01:47;96099.31;;;-2.84;68.29
10978;BME280;5542;48.272;10.794;2023-02-28T02:04:15;96101.34;;;-2.87;68.65
10978;BME280;5542;48.272;10.794;2023-02-28T02:06:44;96093.47;;;-2.76;68.19
10978;BME280;5542;48.272;10.794;2023-02-28T02:09:11;96103.09;;;-2.88;68.61
10978;BME280;5542;48.272;10.794;2023-02-28T02:11:40;96095.13;;;-2.85;68.85
10978;BME280;5542;48.272;10.794;2023-02-28T02:17:06;96092.00;;;-2.98;69.36
10978;BME280;5542;48.272;10.794;2023-02-28T02:22:52;96084.28;;;-3.07;70.00
10978;BME280;5542;48.272;10.794;2023-02-28T02:25:29;96089.13;;;-3.14;70.24
10978;BME280;5542;48.272;10.794;2023-02-28T02:28:14;96081.72;;;-2.98;69.58
10978;BME280;5542;48.272;10.794;2023-02-28T02:31:06;96073.44;;;-3.21;70.99
10978;BME280;5542;48.272;10.794;2023-02-28T02:36:36;96087.13;;;-2.91;69.37
10978;BME280;5542;48.272;10.794;2023-02-28T02:39:08;96084.69;;;-3.02;69.59
10978;BME280;5542;48.272;10.794;2023-02-28T02:41:40;96080.88;;;-3.27;71.04
10978;BME280;5542;48.272;10.794;2023-02-28T02:44:15;96078.44;;;-3.19;70.89
10978;BME280;5542;48.272;10.794;2023-02-28T02:46:45;96086.16;;;-3.19;70.69
10978;BME280;5542;48.272;10.794;2023-02-28T02:49:17;96087.53;;;-3.15;71.28
10978;BME280;5542;48.272;10.794;2023-02-28T02:51:48;96091.06;;;-2.97;70.83
10978;BME280;5542;48.272;10.794;2023-02-28T02:54:18;96090.78;;;-2.94;69.89
10978;BME280;5542;48.272;10.794;2023-02-28T02:56:48;96096.34;;;-3.08;70.58
10978;BME280;5542;48.272;10.794;2023-02-28T02:59:18;96093.63;;;-2.97;70.14
10978;BME280;5542;48.272;10.794;2023-02-28T03:01:49;96094.28;;;-3.04;70.64
10978;BME280;5542;48.272;10.794;2023-02-28T03:04:19;96091.31;;;-3.00;70.38
10978;BME280;5542;48.272;10.794;2023-02-28T03:06:47;96085.25;;;-3.08;70.42
10978;BME280;5542;48.272;10.794;2023-02-28T03:09:14;96086.16;;;-3.00;70.74
10978;BME280;5542;48.272;10.794;2023-02-28T03:11:41;96092.13;;;-3.09;70.43
10978;BME280;5542;48.272;10.794;2023-02-28T03:14:26;96092.97;;;-3.08;70.87
10978;BME280;5542;48.272;10.794;2023-02-28T03:20:06;96093.75;;;-3.18;71.13
10978;BME280;5542;48.272;10.794;2023-02-28T03:22:45;96094.56;;;-3.17;71.62
10978;BME280;5542;48.272;10.794;2023-02-28T03:25:20;96103.91;;;-3.16;71.71
10978;BME280;5542;48.272;10.794;2023-02-28T03:27:55;96094.56;;;-3.17;71.69
10978;BME280;5542;48.272;10.794;2023-02-28T03:30:30;96100.25;;;-3.14;71.68
10978;BME280;5542;48.272;10.794;2023-02-28T03:33:05;96100.78;;;-3.20;71.95
10978;BME280;5542;48.272;10.794;2023-02-28T03:35:35;96100.50;;;-3.26;72.63
10978;BME280;5542;48.272;10.794;2023-02-28T03:38:08;96096.97;;;-3.35;73.14
10978;BME280;5542;48.272;10.794;2023-02-28T03:40:41;96104.03;;;-3.27;73.57
10978;BME280;5542;48.272;10.794;2023-02-28T03:43:13;96106.22;;;-3.13;73.24
10978;BME280;5542;48.272;10.794;2023-02-28T03:45:41;96108.78;;;-3.13;72.73
10978;BME280;5542;48.272;10.794;2023-02-28T03:48:13;96110.41;;;-3.02;72.60
10978;BME280;5542;48.272;10.794;2023-02-28T03:50:44;96114.34;;;-2.98;72.40
10978;BME280;5542;48.272;10.794;2023-02-28T03:53:16;96108.09;;;-3.15;73.39
10978;BME280;5542;48.272;10.794;2023-02-28T03:55:47;96111.38;;;-2.94;73.27
10978;BME280;5542;48.272;10.794;2023-02-28T03:58:19;96112.28;;;-3.14;73.81
10978;BME280;5542;48.272;10.794;2023-02-28T04:00:50;96112.69;;;-3.19;74.28
10978;BME280;5542;48.272;10.794;2023-02-28T04:03:21;96104.72;;;-3.16;74.39
10978;BME280;5542;48.272;10.794;2023-02-28T04:05:50;96111.47;;;-3.15;74.31
10978;BME280;5542;48.272;10.794;2023-02-28T04:08:19;96110.53;;;-3.04;74.60
10978;BME280;5542;48.272;10.794;2023-02-28T04:10:49;96116.53;;;-3.03;74.60
10978;BME280;5542;48.272;10.794;2023-02-28T04:13:17;96125.47;;;-2.98;74.47
10978;BME280;5542;48.272;10.794;2023-02-28T04:15:44;96126.28;;;-2.97;74.37
10978;BME280;5542;48.272;10.794;2023-02-28T04:18:11;96126.28;;;-2.97;74.34
10978;BME280;5542;48.272;10.794;2023-02-28T04:20:37;96119.75;;;-2.92;74.54
10978;BME280;5542;48.272;10.794;2023-02-28T04:23:04;96127.22;;;-2.79;74.18
10978;BME280;5542;48.272;10.794;2023-02-28T04:25:32;96114.88;;;-2.75;74.44
10978;BME280;5542;48.272;10.794;2023-02-28T04:27:58;96118.00;;;-2.72;74.06
10978;BME280;5542;48.272;10.794;2023-02-28T04:30:25;96126.00;;;-2.75;73.63
10978;BME280;5542;48.272;10.794;2023-02-28T04:32:51;96118.56;;;-2.88;74.43
10978;BME280;5542;48.272;10.794;2023-02-28T04:35:18;96116.38;;;-2.83;74.45
10978;BME280;5542;48.272;10.794;2023-02-28T04:37:44;96116.38;;;-2.73;73.97
10978;BME280;5542;48.272;10.794;2023-02-28T04:40:11;96121.69;;;-2.84;73.41
10978;BME280;5542;48.272;10.794;2023-02-28T04:42:39;96115.97;;;-2.78;74.19
10978;BME280;5542;48.272;10.794;2023-02-28T04:45:07;96117.84;;;-2.90;73.99
10978;BME280;5542;48.272;10.794;2023-02-28T04:47:35;96114.88;;;-2.85;74.41
10978;BME280;5542;48.272;10.794;2023-02-28T04:50:02;96123.00;;;-2.99;74.62
10978;BME280;5542;48.272;10.794;2023-02-28T04:52:29;96129.81;;;-2.89;74.55
10978;BME280;5542;48.272;10.794;2023-02-28T04:54:55;96121.53;;;-2.83;74.17
10978;BME280;5542;48.272;10.794;2023-02-28T04:57:22;96123.84;;;-2.79;73.66
10978;BME280;5542;48.272;10.794;2023-02-28T04:59:50;96133.44;;;-2.81;73.67
10978;BME280;5542;48.272;10.794;2023-02-28T05:02:16;96124.38;;;-2.86;73.92
10978;BME280;5542;48.272;10.794;2023-02-28T05:04:43;96126.69;;;-2.73;74.23
10978;BME280;5542;48.272;10.794;2023-02-28T05:07:10;96127.63;;;-2.64;73.79
10978;BME280;5542;48.272;10.794;2023-02-28T05:09:36;96126.28;;;-2.78;73.72
10978;BME280;5542;48.272;10.794;2023-02-28T05:12:03;96128.44;;;-2.93;74.07
10978;BME280;5542;48.272;10.794;2023-02-28T05:14:29;96133.59;;;-2.93;74.32
10978;BME280;5542;48.272;10.794;2023-02-28T05:16:57;96134.13;;;-2.89;74.36
10978;BME280;5542;48.272;10.794;2023-02-28T05:19:24;96126.69;;;-2.92;74.73
10978;BME280;5542;48.272;10.794;2023-02-28T05:21:51;96129.00;;;-2.99;75.01
10978;BME280;5542;48.272;10.794;2023-02-28T05:24:18;96132.63;;;-2.92;74.43
10978;BME280;5542;48.272;10.794;2023-02-28T05:26:48;96129.91;;;-3.00;74.29
10978;BME280;5542;48.272;10.794;2023-02-28T05:29:15;96130.06;;;-2.92;74.64
10978;BME280;5542;48.272;10.794;2023-02-28T05:31:41;96129.25;;;-2.83;74.42
10978;BME280;5542;48.272;10.794;2023-02-28T05:34:09;96129.25;;;-2.92;74.08
10978;BME280;5542;48.272;10.794;2023-02-28T05:36:38;96131.97;;;-2.84;74.14
10978;BME280;5542;48.272;10.794;2023-02-28T05:39:05;96134.00;;;-2.88;74.03
10978;BME280;5542;48.272;10.794;2023-02-28T05:41:32;96133.84;;;-2.86;73.93
10978;BME280;5542;48.272;10.794;2023-02-28T05:43:59;96130.63;;;-2.88;74.59
10978;BME280;5542;48.272;10.794;2023-02-28T05:46:26;96137.94;;;-2.93;74.35
10978;BME280;5542;48.272;10.794;2023-02-28T05:48:53;96139.00;;;-2.96;74.59
10978;BME280;5542;48.272;10.794;2023-02-28T05:51:22;96141.72;;;-2.97;74.22
10978;BME280;5542;48.272;10.794;2023-02-28T05:53:48;96139.94;;;-2.97;73.73
10978;BME280;5542;48.272;10.794;2023-02-28T05:56:16;96143.59;;;-2.99;74.26
10978;BME280;5542;48.272;10.794;2023-02-28T05:58:42;96143.59;;;-2.99;74.64
10978;BME280;5542;48.272;10.794;2023-02-28T06:01:24;96142.13;;;-3.02;74.91
10978;BME280;5542;48.272;10.794;2023-02-28T06:03:52;96151.59;;;-2.93;74.15
10978;BME280;5542;48.272;10.794;2023-02-28T06:06:19;96145.25;;;-2.98;73.63
10978;BME280;5542;48.272;10.794;2023-02-28T06:08:47;96146.72;;;-2.96;74.34
10978;BME280;5542;48.272;10.794;2023-02-28T06:11:13;96147.00;;;-2.99;74.73
10978;BME280;5542;48.272;10.794;2023-02-28T06:13:40;96156.06;;;-2.95;74.15
10978;BME280;5542;48.272;10.794;2023-02-28T06:16:08;96165.84;;;-2.89;73.88
10978;BME280;5542;48.272;10.794;2023-02-28T06:18:35;96168.13;;;-2.95;73.80
10978;BME280;5542;48.272;10.794;2023-02-28T06:21:02;96166.25;;;-2.93;73.89
10978;BME280;5542;48.272;10.794;2023-02-28T06:23:29;96175.84;;;-2.86;74.40
10978;BME280;5542;48.272;10.794;2023-02-28T06:25:57;96184.50;;;-3.06;74.01
10978;BME280;5542;48.272;10.794;2023-02-28T06:28:24;96193.84;;;-3.05;74.15
10978;BME280;5542;48.272;10.794;2023-02-28T06:30:51;96189.22;;;-3.11;74.21
10978;BME280;5542;48.272;10.794;2023-02-28T06:33:18;96207.50;;;-3.14;74.78
10978;BME280;5542;48.272;10.794;2023-02-28T06:35:46;96206.19;;;-3.08;75.02
10978;BME280;5542;48.272;10.794;2023-02-28T06:38:13;96201.69;;;-3.16;75.14
10978;BME280;5542;48.272;10.794;2023-02-28T06:40:40;96209.13;;;-3.23;75.04
10978;BME280;5542;48.272;10.794;2023-02-28T06:43:07;96214.25;;;-3.23;75.28
10978;BME280;5542;48.272;10.794;2023-02-28T06:45:34;96209.97;;;-3.03;75.14
10978;BME280;5542;48.272;10.794;2023-02-28T06:48:01;96217.00;;;-3.05;74.74
10978;BME280;5542;48.272;10.794;2023-02-28T06:50:27;96213.34;;;-3.02;74.63
10978;BME280;5542;48.272;10.794;2023-02-28T06:52:56;96210.38;;;-3.07;75.00
10978;BME280;5542;48.272;10.794;2023-02-28T06:55:22;96217.28;;;-3.08;74.58
10978;BME280;5542;48.272;10.794;2023-02-28T06:57:49;96206.97;;;-3.08;74.70
10978;BME280;5542;48.272;10.794;2023-02-28T07:00:18;96214.16;;;-3.02;74.62
10978;BME280;5542;48.272;10.794;2023-02-28T07:02:44;96213.63;;;-2.96;74.90
10978;BME280;5542;48.272;10.794;2023-02-28T07:05:12;96209.19;;;-2.94;74.40
10978;BME280;5542;48.272;10.794;2023-02-28T07:07:39;96198.56;;;-3.10;74.84
10978;BME280;5542;48.272;10.794;2023-02-28T07:10:10;96204.53;;;-3.00;75.06
10978;BME280;5542;48.272;10.794;2023-02-28T07:12:37;96199.28;;;-3.08;75.37
10978;BME280;5542;48.272;10.794;2023-02-28T07:15:05;96204.28;;;-2.97;74.82
10978;BME280;5542;48.272;10.794;2023-02-28T07:17:33;96215.78;;;-3.01;74.15
10978;BME280;5542;48.272;10.794;2023-02-28T07:20:00;96198.06;;;-2.94;74.44
10978;BME280;5542;48.272;10.794;2023-02-28T07:22:26;96203.19;;;-3.04;74.63
10978;BME280;5542;48.272;10.794;2023-02-28T07:24:53;96209.41;;;-3.06;74.71
10978;BME280;5542;48.272;10.794;2023-02-28T07:27:20;96211.72;;;-3.13;75.03
10978;BME280;5542;48.272;10.794;2023-02-28T07:29:51;96214.00;;;-3.10;74.43
10978;BME280;5542;48.272;10.794;2023-02-28T07:32:18;96206.97;;;-3.08;74.30
10978;BME280;5542;48.272;10.794;2023-02-28T07:34:46;96209.97;;;-3.03;74.79
10978;BME280;5542;48.272;10.794;2023-02-28T07:37:13;96222.16;;;-3.05;74.46
10978;BME280;5542;48.272;10.794;2023-02-28T07:39:40;96223.09;;;-3.06;74.77
10978;BME280;5542;48.272;10.794;2023-02-28T07:42:08;96228.81;;;-3.02;74.51
10978;BME280;5542;48.272;10.794;2023-02-28T07:44:37;96237.63;;;-2.86;74.06
10978;BME280;5542;48.272;10.794;2023-02-28T07:47:06;96239.28;;;-2.85;73.16
10978;BME280;5542;48.272;10.794;2023-02-28T07:49:33;96240.19;;;-2.86;73.90
10978;BME280;5542;48.272;10.794;2023-02-28T07:52:01;96237.22;;;-2.81;73.55
10978;BME280;5542;48.272;10.794;2023-02-28T07:54:27;96235.72;;;-2.93;73.96
10978;BME280;5542;48.272;10.794;2023-02-28T07:56:54;96227.31;;;-2.95;73.92
10978;BME280;5542;48.272;10.794;2023-02-28T07:59:20;96230.69;;;-2.95;73.91
10978;BME280;5542;48.272;10.794;2023-02-28T08:01:47;96228.81;;;-2.93;74.46
10978;BME280;5542;48.272;10.794;2023-02-28T08:04:15;96235.44;;;-3.00;74.15
10978;BME280;5542;48.272;10.794;2023-02-28T08:06:42;96223.75;;;-3.04;74.37
10978;BME280;5542;48.272;10.794;2023-02-28T08:09:10;96233.25;;;-2.95;74.52
10978;BME280;5542;48.272;10.794;2023-02-28T08:11:37;96246.00;;;-3.03;74.10
10978;BME280;5542;48.272;10.794;2023-02-28T08:14:03;96243.31;;;-2.92;74.03
10978;BME280;5542;48.272;10.794;2023-02-28T08:16:30;96237.50;;;-2.94;74.12
10978;BME280;5542;48.272;10.794;2023-02-28T08:18:56;96244.69;;;-2.88;73.98
10978;BME280;5542;48.272;10.794;2023-02-28T08:21:23;96242.53;;;-2.83;74.15
10978;BME280;5542;48.272;10.794;2023-02-28T08:23:50;96242.09;;;-2.88;74.59
10978;BME280;5542;48.272;10.794;2023-02-28T08:26:19;96234.78;;;-2.83;73.86
10978;BME280;5542;48.272;10.794;2023-02-28T08:28:46;96246.72;;;-2.81;73.74
10978;BME280;5542;48.272;10.794;2023-02-28T08:31:14;96243.09;;;-2.69;73.29
10978;BME280;5542;48.272;10.794;2023-02-28T08:33:41;96256.06;;;-2.80;72.79
10978;BME280;5542;48.272;10.794;2023-02-28T08:36:10;96250.38;;;-2.84;73.13
10978;BME280;5542;48.272;10.794;2023-02-28T08:38:37;96255.13;;;-2.89;73.13
10978;BME280;5542;48.272;10.794;2023-02-28T08:41:06;96257.69;;;-2.89;73.53
10978;BME280;5542;48.272;10.794;2023-02-28T08:43:35;96253.88;;;-2.85;73.35
10978;BME280;5542;48.272;10.794;2023-02-28T08:46:03;96251.19;;;-2.84;73.10
10978;BME280;5542;48.272;10.794;2023-02-28T08:48:31;96265.84;;;-2.74;73.70
10978;BME280;5542;48.272;10.794;2023-02-28T08:51:00;96256.91;;;-2.80;72.81
10978;BME280;5542;48.272;10.794;2023-02-28T08:53:27;96246.59;;;-2.80;73.14
10978;BME280;5542;48.272;10.794;2023-02-28T08:56:01;96258.81;;;-2.63;73.05
10978;BME280;5542;48.272;10.794;2023-02-28T08:58:29;96266.94;;;-2.48;72.82
10978;BME280;5542;48.272;10.794;2023-02-28T09:00:57;96252.59;;;-2.41;71.88
10978;BME280;5542;48.272;10.794;2023-02-28T09:03:24;96267.66;;;-2.46;71.90
10978;BME280;5542;48.272;10.794;2023-02-28T09:05:54;96261.38;;;-2.53;71.59
10978;BME280;5542;48.272;10.794;2023-02-28T09:08:21;96277.38;;;-2.59;71.88
10978;BME280;5542;48.272;10.794;2023-02-28T09:10:47;96260.44;;;-2.62;71.80
10978;BME280;5542;48.272;10.794;2023-02-28T09:13:14;96266.53;;;-2.53;72.05
10978;BME280;5542;48.272;10.794;2023-02-28T09:15:41;96270.06;;;-2.54;72.51
10978;BME280;5542;48.272;10.794;2023-02-28T09:18:09;96275.06;;;-2.62;72.46
10978;BME280;5542;48.272;10.794;2023-02-28T09:20:37;96272.81;;;-2.46;72.06
10978;BME280;5542;48.272;10.794;2023-02-28T09:23:04;96282.81;;;-2.43;71.86
10978;BME280;5542;48.272;10.794;2023-02-28T09:25:30;96279.72;;;-2.46;71.99
10978;BME280;5542;48.272;10.794;2023-02-28T09:27:57;96287.88;;;-2.32;71.31
10978;BME280;5542;48.272;10.794;2023-02-28T09:30:24;96280.53;;;-2.26;71.39
10978;BME280;5542;48.272;10.794;2023-02-28T09:32:50;96286.25;;;-2.23;71.38
10978;BME280;5542;48.272;10.794;2023-02-28T09:35:21;96282.72;;;-2.02;71.24
10978;BME280;5542;48.272;10.794;2023-02-28T09:37:50;96285.53;;;-1.96;70.16
10978;BME280;5542;48.272;10.794;2023-02-28T09:40:17;96292.47;;;-1.96;71.11
10978;BME280;5542;48.272;10.794;2023-02-28T09:42:46;96297.63;;;-1.96;71.36
10978;BME280;5542;48.272;10.794;2023-02-28T09:45:21;96300.19;;;-1.77;69.64
10978;BME280;5542;48.272;10.794;2023-02-28T09:47:50;96298.53;;;-1.68;69.29
10978;BME280;5542;48.272;10.794;2023-02-28T09:50:28;96299.22;;;-1.86;70.24
10978;BME280;5542;48.272;10.794;2023-02-28T09:52:58;96301.28;;;-1.79;71.21
10978;BME280;5542;48.272;10.794;2023-02-28T09:55:29;96306.03;;;-1.65;70.02
10978;BME280;5542;48.272;10.794;2023-02-28T09:57:57;96310.09;;;-1.72;69.89
10978;BME280;5542;48.272;10.794;2023-02-28T10:00:30;96301.47;;;-1.44;69.45
10978;BME280;5542;48.272;10.794;2023-02-28T10:03:05;96300.75;;;-1.26;68.22
10978;BME280;5542;48.272;10.794;2023-02-28T10:05:36;96307.72;;;-1.37;68.32
10978;BME280;5542;48.272;10.794;2023-02-28T10:08:11;96310.19;;;-1.45;68.35
10978;BME280;5542;48.272;10.794;2023-02-28T10:10:41;96312.50;;;-1.42;67.69
10978;BME280;5542;48.272;10.794;2023-02-28T10:13:16;96314.13;;;-1.50;68.15
10978;BME280;5542;48.272;10.794;2023-02-28T10:15:46;96318.47;;;-1.41;67.58
10978;BME280;5542;48.272;10.794;2023-02-28T10:18:16;96324.25;;;-1.30;67.57
10978;BME280;5542;48.272;10.794;2023-02-28T10:20:48;96324.13;;;-1.38;67.45
10978;BME280;5542;48.272;10.794;2023-02-28T10:23:20;96327.66;;;-1.39;67.19
10978;BME280;5542;48.272;10.794;2023-02-28T10:25:51;96329.72;;;-1.33;67.65
10978;BME280;5542;48.272;10.794;2023-02-28T10:28:20;96325.91;;;-1.38;67.95
10978;BME280;5542;48.272;10.794;2023-02-28T10:30:48;96314.66;;;-1.37;68.16
10978;BME280;5542;48.272;10.794;2023-02-28T10:33:19;96315.81;;;-1.22;68.26
10978;BME280;5542;48.272;10.794;2023-02-28T10:35:49;96313.75;;;-1.09;67.79
10978;BME280;5542;48.272;10.794;2023-02-28T10:38:18;96318.03;;;-0.90;66.92
10978;BME280;5542;48.272;10.794;2023-02-28T10:40:45;96311.03;;;-0.80;66.38
10978;BME280;5542;48.272;10.794;2023-02-28T10:43:21;96316.22;;;-0.80;66.52
10978;BME280;5542;48.272;10.794;2023-02-28T10:45:56;96309.50;;;-0.72;67.22
10978;BME280;5542;48.272;10.794;2023-02-28T10:48:30;96310.56;;;-0.65;66.91
10978;BME280;5542;48.272;10.794;2023-02-28T10:51:00;96311.81;;;-0.69;66.29
10978;BME280;5542;48.272;10.794;2023-02-28T10:53:32;96304.59;;;-0.48;65.59
10978;BME280;5542;48.272;10.794;2023-02-28T10:56:01;96319.16;;;-0.47;65.26
10978;BME280;5542;48.272;10.794;2023-02-28T10:58:30;96312.06;;;-0.45;64.89
10978;BME280;5542;48.272;10.794;2023-02-28T11:00:58;96312.72;;;-0.43;64.61
10978;BME280;5542;48.272;10.794;2023-02-28T11:03:30;96319.44;;;-0.50;65.58
10978;BME280;5542;48.272;10.794;2023-02-28T11:06:05;96314.44;;;-0.34;66.66
10978;BME280;5542;48.272;10.794;2023-02-28T11:08:33;96312.63;;;-0.23;63.95
10978;BME280;5542;48.272;10.794;2023-02-28T11:11:04;96314.81;;;-0.29;64.80
10978;BME280;5542;48.272;10.794;2023-02-28T11:13:33;96310.47;;;-0.28;64.84
10978;BME280;5542;48.272;10.794;2023-02-28T11:16:02;96308.28;;;-0.23;64.97
10978;BME280;5542;48.272;10.794;2023-02-28T11:18:36;96305.81;;;-0.07;65.14
10978;BME280;5542;48.272;10.794;2023-02-28T11:21:08;96313.06;;;0.08;63.60
10978;BME280;5542;48.272;10.794;2023-02-28T11:23:40;96314.91;;;0.15;64.76
10978;BME280;5542;48.272;10.794;2023-02-28T11:26:07;96307.72;;;0.09;63.95
10978;BME280;5542;48.272;10.794;2023-02-28T11:28:38;96300.94;;;0.26;64.46
10978;BME280;5542;48.272;10.794;2023-02-28T11:31:16;96302.41;;;0.29;63.06
10978;BME280;5542;48.272;10.794;2023-02-28T11:33:46;96308.06;;;0.50;63.60
10978;BME280;5542;48.272;10.794;2023-02-28T11:36:19;96295.63;;;0.54;61.21
10978;BME280;5542;48.272;10.794;2023-02-28T11:41:38;96297.84;;;0.74;62.66
10978;BME280;5542;48.272;10.794;2023-02-28T11:44:23;96289.78;;;0.51;63.92
10978;BME280;5542;48.272;10.794;2023-02-28T11:46:58;96294.97;;;0.77;62.75
10978;BME280;5542;48.272;10.794;2023-02-28T11:49:33;96288.88;;;0.95;63.11
10978;BME280;5542;48.272;10.794;2023-02-28T11:52:06;96290.03;;;0.92;62.10
10978;BME280;5542;48.272;10.794;2023-02-28T11:54:51;96286.06;;;1.06;61.58
10978;BME280;5542;48.272;10.794;2023-02-28T11:57:35;96272.16;;;1.15;60.67
10978;BME280;5542;48.272;10.794;2023-02-28T12:00:10;96279.59;;;1.10;60.69
10978;BME280;5542;48.272;10.794;2023-02-28T12:02:55;96274.09;;;1.13;60.55
10978;BME280;5542;48.272;10.794;2023-02-28T12:05:31;96273.47;;;1.19;62.07
10978;BME280;5542;48.272;10.794;2023-02-28T12:08:10;96273.81;;;1.24;60.82
10978;BME280;5542;48.272;10.794;2023-02-28T12:10:49;96268.97;;;1.30;60.21
10978;BME280;5542;48.272;10.794;2023-02-28T12:13:24;96280.16;;;1.30;61.53
10978;BME280;5542;48.272;10.794;2023-02-28T12:16:15;96268.91;;;1.13;59.90
10978;BME280;5542;48.272;10.794;2023-02-28T12:19:07;96271.97;;;1.09;60.95
10978;BME280;5542;48.272;10.794;2023-02-28T12:21:50;96273.41;;;1.03;60.28
10978;BME280;5542;48.272;10.794;2023-02-28T12:24:47;96275.09;;;1.20;60.42
10978;BME280;5542;48.272;10.794;2023-02-28T12:27:19;96263.94;;;1.20;60.02
10978;BME280;5542;48.272;10.794;2023-02-28T12:29:51;96264.09;;;1.26;60.95
10978;BME280;5542;48.272;10.794;2023-02-28T12:32:25;96266.69;;;1.26;60.37
10978;BME280;5542;48.272;10.794;2023-02-28T12:34:56;96262.84;;;1.39;59.86
10978;BME280;5542;48.272;10.794;2023-02-28T12:37:28;96260.72;;;1.34;59.45
10978;BME280;5542;48.272;10.794;2023-02-28T12:40:01;96254.06;;;1.32;60.41
10978;BME280;5542;48.272;10.794;2023-02-28T12:42:33;96259.59;;;1.37;59.37
10978;BME280;5542;48.272;10.794;2023-02-28T12:45:09;96255.84;;;1.31;61.30
10978;BME280;5542;48.272;10.794;2023-02-28T12:47:38;96253.78;;;1.43;59.53
10978;BME280;5542;48.272;10.794;2023-02-28T12:50:08;96250.22;;;1.44;59.02
10978;BME280;5542;48.272;10.794;2023-02-28T12:52:40;96249.22;;;1.37;59.36
10978;BME280;5542;48.272;10.794;2023-02-28T12:55:14;96242.94;;;1.39;58.97
10978;BME280;5542;48.272;10.794;2023-02-28T12:57:48;96244.06;;;1.45;59.53
10978;BME280;5542;48.272;10.794;2023-02-28T13:00:18;96253.31;;;1.47;59.34
10978;BME280;5542;48.272;10.794;2023-02-28T13:05:51;96245.69;;;1.46;60.41
10978;BME280;5542;48.272;10.794;2023-02-28T13:11:37;96235.84;;;1.74;59.02
10978;BME280;5542;48.272;10.794;2023-02-28T13:14:16;96241.84;;;1.74;58.85
10978;BME280;5542;48.272;10.794;2023-02-28T13:16:58;96237.66;;;1.82;59.15
10978;BME280;5542;48.272;10.794;2023-02-28T13:19:27;96235.88;;;1.90;58.10
10978;BME280;5542;48.272;10.794;2023-02-28T13:21:56;96246.41;;;1.97;59.13
10978;BME280;5542;48.272;10.794;2023-02-28T13:27:34;96236.38;;;1.86;59.58
10978;BME280;5542;48.272;10.794;2023-02-28T13:33:26;96239.41;;;2.22;57.25
10978;BME280;5542;48.272;10.794;2023-02-28T13:36:11;96237.34;;;2.09;57.33
10978;BME280;5542;48.272;10.794;2023-02-28T13:38:49;96241.69;;;2.17;57.10
10978;BME280;5542;48.272;10.794;2023-02-28T13:41:41;96234.41;;;2.20;57.90
10978;BME280;5542;48.272;10.794;2023-02-28T13:44:10;96234.06;;;2.31;58.15